sensor_id;sensor_type;location;lat;lon;timestamp;P1;durP1;ratioP1;P2;durP2;ratioP2
59653;SDS011;66556;52.008;5.432;2023-05-07T00:02:34;10.0;;;7.2;;
59653;SDS011;66556;52.008;5.432;2023-05-07T00:04:10;9.71;;;8.0;;
59653;SDS011;66556;52.008;5.432;2023-05-07T00:05:47;8.81;;;7.0;;
59653;SDS011;66556;52.008;5.432;2023-05-07T00:08:59;12.0;;;8.6;;
59653;SDS011;66556;52.008;5.432;2023-05-07T00:10:35;7.8;;;6.7;;
59653;SDS011;66556;52.008;5.432;2023-05-07T00:12:11;8.6;;;6.9;;
59653;SDS011;66556;52.008;5.432;2023-05-07T00:13:47;7.8;;;6.1;;
59653;SDS011;66556;52.008;5.432;2023-05-07T00:17:02;7.4;;;5.9;;
59653;SDS011;66556;52.008;5.432;2023-05-07T00:18:39;8.31;;;5.7;;
59653;SDS011;66556;52.008;5.432;2023-05-07T00:20:15;7.9;;;7.1;;
59653;SDS011;66556;52.008;5.432;2023-05-07T00:23:27;9.81;;;7.0;;
59653;SDS011;66556;52.008;5.432;2023-05-07T00:25:04;9.6;;;6.6;;
59653;SDS011;66556;52.008;5.432;2023-05-07T00:26:41;9.71;;;6.9;;
59653;SDS011;66556;52.008;5.432;2023-05-07T00:29:55;8.6;;;6.3;;
59653;SDS011;66556;52.008;5.432;2023-05-07T00:31:32;9.1;;;6.3;;
59653;SDS011;66556;52.008;5.432;2023-05-07T00:33:08;7.4;;;5.7;;
59653;SDS011;66556;52.008;5.432;2023-05-07T00:34:44;9.1;;;6.7;;
59653;SDS011;66556;52.008;5.432;2023-05-07T00:37:57;9.9;;;7.1;;
59653;SDS011;66556;52.008;5.432;2023-05-07T00:39:34;8.9;;;6.1;;
59653;SDS011;66556;52.008;5.432;2023-05-07T00:41:11;9.9;;;6.9;;
59653;SDS011;66556;52.008;5.432;2023-05-07T00:44:24;9.1;;;6.7;;
59653;SDS011;66556;52.008;5.432;2023-05-07T00:46:00;9.0;;;6.2;;
59653;SDS011;66556;52.008;5.432;2023-05-07T00:47:37;10.9;;;7.0;;
59653;SDS011;66556;52.008;5.432;2023-05-07T00:50:51;8.81;;;6.9;;
59653;SDS011;66556;52.008;5.432;2023-05-07T00:52:29;9.4;;;6.8;;
59653;SDS011;66556;52.008;5.432;2023-05-07T00:54:06;9.1;;;6.5;;
59653;SDS011;66556;52.008;5.432;2023-05-07T00:55:43;8.5;;;7.0;;
59653;SDS011;66556;52.008;5.432;2023-05-07T00:58:57;10.1;;;7.6;;
59653;SDS011;66556;52.008;5.432;2023-05-07T01:00:33;9.5;;;6.9;;
59653;SDS011;66556;52.008;5.432;2023-05-07T01:02:10;8.5;;;6.8;;
59653;SDS011;66556;52.008;5.432;2023-05-07T01:05:24;8.71;;;7.6;;
59653;SDS011;66556;52.008;5.432;2023-05-07T01:07:02;10.8;;;8.1;;
59653;SDS011;66556;52.008;5.432;2023-05-07T01:08:39;8.6;;;7.7;;
59653;SDS011;66556;52.008;5.432;2023-05-07T01:10:17;8.71;;;7.3;;
59653;SDS011;66556;52.008;5.432;2023-05-07T01:13:32;10.0;;;7.2;;
59653;SDS011;66556;52.008;5.432;2023-05-07T01:15:10;10.0;;;7.6;;
59653;SDS011;66556;52.008;5.432;2023-05-07T01:16:48;10.21;;;7.4;;
59653;SDS011;66556;52.008;5.432;2023-05-07T01:20:02;9.5;;;7.8;;
59653;SDS011;66556;52.008;5.432;2023-05-07T01:21:40;10.6;;;8.4;;
59653;SDS011;66556;52.008;5.432;2023-05-07T01:23:22;11.5;;;9.0;;
59653;SDS011;66556;52.008;5.432;2023-05-07T01:24:59;11.6;;;9.21;;
59653;SDS011;66556;52.008;5.432;2023-05-07T01:28:13;11.8;;;8.71;;
59653;SDS011;66556;52.008;5.432;2023-05-07T01:29:50;9.0;;;7.5;;
59653;SDS011;66556;52.008;5.432;2023-05-07T01:31:26;11.5;;;9.4;;
59653;SDS011;66556;52.008;5.432;2023-05-07T01:34:44;11.5;;;8.4;;
59653;SDS011;66556;52.008;5.432;2023-05-07T01:36:24;11.5;;;8.4;;
59653;SDS011;66556;52.008;5.432;2023-05-07T01:38:02;10.8;;;9.1;;
59653;SDS011;66556;52.008;5.432;2023-05-07T01:39:39;10.9;;;8.0;;
59653;SDS011;66556;52.008;5.432;2023-05-07T01:42:54;10.9;;;9.4;;
59653;SDS011;66556;52.008;5.432;2023-05-07T01:44:30;10.8;;;8.71;;
59653;SDS011;66556;52.008;5.432;2023-05-07T01:46:06;10.8;;;9.21;;
59653;SDS011;66556;52.008;5.432;2023-05-07T01:49:20;12.5;;;9.81;;
59653;SDS011;66556;52.008;5.432;2023-05-07T01:50:57;11.2;;;9.5;;
59653;SDS011;66556;52.008;5.432;2023-05-07T01:52:34;15.9;;;10.8;;
59653;SDS011;66556;52.008;5.432;2023-05-07T01:54:12;13.8;;;10.1;;
59653;SDS011;66556;52.008;5.432;2023-05-07T01:57:24;15.3;;;10.8;;
59653;SDS011;66556;52.008;5.432;2023-05-07T01:59:00;13.2;;;10.3;;
59653;SDS011;66556;52.008;5.432;2023-05-07T02:00:36;12.8;;;10.4;;
59653;SDS011;66556;52.008;5.432;2023-05-07T02:03:50;14.9;;;11.7;;
59653;SDS011;66556;52.008;5.432;2023-05-07T02:05:26;12.2;;;10.6;;
59653;SDS011;66556;52.008;5.432;2023-05-07T02:07:02;12.1;;;10.5;;
59653;SDS011;66556;52.008;5.432;2023-05-07T02:10:14;14.3;;;11.5;;
59653;SDS011;66556;52.008;5.432;2023-05-07T02:11:50;14.0;;;11.3;;
59653;SDS011;66556;52.008;5.432;2023-05-07T02:13:28;13.4;;;11.1;;
59653;SDS011;66556;52.008;5.432;2023-05-07T02:15:06;13.6;;;11.1;;
59653;SDS011;66556;52.008;5.432;2023-05-07T02:18:19;12.4;;;9.5;;
59653;SDS011;66556;52.008;5.432;2023-05-07T02:19:55;14.6;;;10.5;;
59653;SDS011;66556;52.008;5.432;2023-05-07T02:21:31;11.8;;;9.1;;
59653;SDS011;66556;52.008;5.432;2023-05-07T02:24:44;13.7;;;11.6;;
59653;SDS011;66556;52.008;5.432;2023-05-07T02:26:20;14.7;;;11.6;;
59653;SDS011;66556;52.008;5.432;2023-05-07T02:27:56;15.9;;;11.6;;
59653;SDS011;66556;52.008;5.432;2023-05-07T02:31:09;16.2;;;12.5;;
59653;SDS011;66556;52.008;5.432;2023-05-07T02:32:45;14.5;;;11.4;;
59653;SDS011;66556;52.008;5.432;2023-05-07T02:34:21;15.5;;;12.5;;
59653;SDS011;66556;52.008;5.432;2023-05-07T02:37:41;14.2;;;12.8;;
59653;SDS011;66556;52.008;5.432;2023-05-07T02:39:17;19.11;;;13.4;;
59653;SDS011;66556;52.008;5.432;2023-05-07T02:40:54;16.9;;;13.8;;
59653;SDS011;66556;52.008;5.432;2023-05-07T02:42:31;16.4;;;13.5;;
59653;SDS011;66556;52.008;5.432;2023-05-07T02:45:44;15.7;;;13.0;;
59653;SDS011;66556;52.008;5.432;2023-05-07T02:47:20;14.9;;;13.3;;
59653;SDS011;66556;52.008;5.432;2023-05-07T02:48:56;16.8;;;14.1;;
59653;SDS011;66556;52.008;5.432;2023-05-07T02:52:09;17.0;;;14.4;;
59653;SDS011;66556;52.008;5.432;2023-05-07T02:53:45;14.7;;;12.7;;
59653;SDS011;66556;52.008;5.432;2023-05-07T02:55:21;15.2;;;12.9;;
59653;SDS011;66556;52.008;5.432;2023-05-07T02:56:57;14.4;;;12.9;;
59653;SDS011;66556;52.008;5.432;2023-05-07T03:00:10;15.7;;;12.7;;
59653;SDS011;66556;52.008;5.432;2023-05-07T03:01:48;17.3;;;13.3;;
59653;SDS011;66556;52.008;5.432;2023-05-07T03:03:24;15.4;;;13.8;;
59653;SDS011;66556;52.008;5.432;2023-05-07T03:06:36;17.8;;;15.4;;
59653;SDS011;66556;52.008;5.432;2023-05-07T03:08:12;19.5;;;15.7;;
59653;SDS011;66556;52.008;5.432;2023-05-07T03:09:48;16.3;;;14.5;;
59653;SDS011;66556;52.008;5.432;2023-05-07T03:13:01;17.91;;;16.0;;
59653;SDS011;66556;52.008;5.432;2023-05-07T03:14:38;18.5;;;15.9;;
59653;SDS011;66556;52.008;5.432;2023-05-07T03:16:14;19.3;;;17.3;;
59653;SDS011;66556;52.008;5.432;2023-05-07T03:17:51;19.61;;;17.5;;
59653;SDS011;66556;52.008;5.432;2023-05-07T03:21:03;20.7;;;18.2;;
59653;SDS011;66556;52.008;5.432;2023-05-07T03:22:40;19.11;;;16.9;;
59653;SDS011;66556;52.008;5.432;2023-05-07T03:24:17;18.11;;;15.7;;
59653;SDS011;66556;52.008;5.432;2023-05-07T03:27:29;19.41;;;17.3;;
59653;SDS011;66556;52.008;5.432;2023-05-07T03:29:05;18.61;;;16.11;;
59653;SDS011;66556;52.008;5.432;2023-05-07T03:30:41;17.91;;;16.11;;
59653;SDS011;66556;52.008;5.432;2023-05-07T03:33:54;19.7;;;17.41;;
59653;SDS011;66556;52.008;5.432;2023-05-07T03:35:32;21.5;;;18.11;;
59653;SDS011;66556;52.008;5.432;2023-05-07T03:37:09;19.2;;;17.11;;
59653;SDS011;66556;52.008;5.432;2023-05-07T03:38:45;16.8;;;15.0;;
59653;SDS011;66556;52.008;5.432;2023-05-07T03:41:57;22.2;;;17.8;;
59653;SDS011;66556;52.008;5.432;2023-05-07T03:43:34;21.8;;;18.2;;
59653;SDS011;66556;52.008;5.432;2023-05-07T03:45:11;19.91;;;17.7;;
59653;SDS011;66556;52.008;5.432;2023-05-07T03:48:23;20.8;;;18.61;;
59653;SDS011;66556;52.008;5.432;2023-05-07T03:49:59;23.4;;;20.3;;
59653;SDS011;66556;52.008;5.432;2023-05-07T03:51:35;20.41;;;17.7;;
59653;SDS011;66556;52.008;5.432;2023-05-07T03:54:48;19.41;;;17.41;;
59653;SDS011;66556;52.008;5.432;2023-05-07T03:56:24;19.7;;;17.61;;
59653;SDS011;66556;52.008;5.432;2023-05-07T03:58:01;19.2;;;17.0;;
59653;SDS011;66556;52.008;5.432;2023-05-07T04:01:13;21.3;;;18.7;;
59653;SDS011;66556;52.008;5.432;2023-05-07T04:02:49;22.1;;;18.5;;
59653;SDS011;66556;52.008;5.432;2023-05-07T04:04:25;22.0;;;17.61;;
59653;SDS011;66556;52.008;5.432;2023-05-07T04:06:01;20.7;;;18.5;;
59653;SDS011;66556;52.008;5.432;2023-05-07T04:09:15;20.41;;;18.2;;
59653;SDS011;66556;52.008;5.432;2023-05-07T04:10:54;23.7;;;19.11;;
59653;SDS011;66556;52.008;5.432;2023-05-07T04:12:31;22.2;;;19.8;;
59653;SDS011;66556;52.008;5.432;2023-05-07T04:15:43;22.6;;;19.3;;
59653;SDS011;66556;52.008;5.432;2023-05-07T04:17:19;19.5;;;17.41;;
59653;SDS011;66556;52.008;5.432;2023-05-07T04:18:55;22.3;;;18.8;;
59653;SDS011;66556;52.008;5.432;2023-05-07T04:22:11;18.3;;;15.6;;
59653;SDS011;66556;52.008;5.432;2023-05-07T04:23:48;20.41;;;18.2;;
59653;SDS011;66556;52.008;5.432;2023-05-07T04:25:25;19.91;;;17.8;;
59653;SDS011;66556;52.008;5.432;2023-05-07T04:27:01;20.2;;;18.0;;
59653;SDS011;66556;52.008;5.432;2023-05-07T04:30:14;19.11;;;17.11;;
59653;SDS011;66556;52.008;5.432;2023-05-07T04:31:50;16.9;;;15.2;;
59653;SDS011;66556;52.008;5.432;2023-05-07T04:33:27;17.5;;;15.6;;
59653;SDS011;66556;52.008;5.432;2023-05-07T04:36:40;18.7;;;16.7;;
59653;SDS011;66556;52.008;5.432;2023-05-07T04:38:17;16.8;;;15.1;;
59653;SDS011;66556;52.008;5.432;2023-05-07T04:39:53;17.2;;;15.4;;
59653;SDS011;66556;52.008;5.432;2023-05-07T04:43:05;21.2;;;18.91;;
59653;SDS011;66556;52.008;5.432;2023-05-07T04:44:42;19.0;;;16.4;;
59653;SDS011;66556;52.008;5.432;2023-05-07T04:46:20;21.5;;;17.11;;
59653;SDS011;66556;52.008;5.432;2023-05-07T04:47:56;17.61;;;15.8;;
59653;SDS011;66556;52.008;5.432;2023-05-07T04:51:08;18.11;;;15.2;;
59653;SDS011;66556;52.008;5.432;2023-05-07T04:52:44;18.41;;;16.4;;
59653;SDS011;66556;52.008;5.432;2023-05-07T04:54:20;19.11;;;15.7;;
59653;SDS011;66556;52.008;5.432;2023-05-07T04:57:33;19.91;;;17.2;;
59653;SDS011;66556;52.008;5.432;2023-05-07T04:59:10;21.8;;;18.11;;
59653;SDS011;66556;52.008;5.432;2023-05-07T05:00:46;17.8;;;15.9;;
59653;SDS011;66556;52.008;5.432;2023-05-07T05:03:58;18.5;;;16.61;;
59653;SDS011;66556;52.008;5.432;2023-05-07T05:05:34;18.2;;;16.11;;
59653;SDS011;66556;52.008;5.432;2023-05-07T05:07:10;18.0;;;16.2;;
59653;SDS011;66556;52.008;5.432;2023-05-07T05:08:47;22.6;;;17.3;;
59653;SDS011;66556;52.008;5.432;2023-05-07T05:11:59;20.11;;;16.4;;
59653;SDS011;66556;52.008;5.432;2023-05-07T05:13:35;19.8;;;17.2;;
59653;SDS011;66556;52.008;5.432;2023-05-07T05:15:11;20.11;;;17.91;;
59653;SDS011;66556;52.008;5.432;2023-05-07T05:18:25;18.8;;;16.61;;
59653;SDS011;66556;52.008;5.432;2023-05-07T05:20:00;19.2;;;17.0;;
59653;SDS011;66556;52.008;5.432;2023-05-07T05:21:37;17.7;;;15.0;;
59653;SDS011;66556;52.008;5.432;2023-05-07T05:24:49;17.91;;;15.7;;
59653;SDS011;66556;52.008;5.432;2023-05-07T05:26:25;18.5;;;15.5;;
59653;SDS011;66556;52.008;5.432;2023-05-07T05:28:01;18.11;;;16.3;;
59653;SDS011;66556;52.008;5.432;2023-05-07T05:29:37;19.5;;;16.61;;
59653;SDS011;66556;52.008;5.432;2023-05-07T05:32:50;18.41;;;16.2;;
59653;SDS011;66556;52.008;5.432;2023-05-07T05:34:26;17.61;;;15.5;;
59653;SDS011;66556;52.008;5.432;2023-05-07T05:36:02;19.7;;;15.9;;
59653;SDS011;66556;52.008;5.432;2023-05-07T05:39:15;18.2;;;16.3;;
59653;SDS011;66556;52.008;5.432;2023-05-07T05:40:53;15.5;;;13.9;;
59653;SDS011;66556;52.008;5.432;2023-05-07T05:42:29;15.0;;;13.4;;
59653;SDS011;66556;52.008;5.432;2023-05-07T05:45:42;16.0;;;14.3;;
59653;SDS011;66556;52.008;5.432;2023-05-07T05:47:18;19.8;;;14.7;;
59653;SDS011;66556;52.008;5.432;2023-05-07T05:48:54;19.8;;;14.7;;
59653;SDS011;66556;52.008;5.432;2023-05-07T05:52:06;15.6;;;13.9;;
59653;SDS011;66556;52.008;5.432;2023-05-07T05:53:43;15.1;;;13.5;;
59653;SDS011;66556;52.008;5.432;2023-05-07T05:55:19;17.3;;;14.4;;
59653;SDS011;66556;52.008;5.432;2023-05-07T05:56:56;16.3;;;14.4;;
59653;SDS011;66556;52.008;5.432;2023-05-07T06:00:10;17.41;;;14.8;;
59653;SDS011;66556;52.008;5.432;2023-05-07T06:01:46;19.11;;;15.1;;
59653;SDS011;66556;52.008;5.432;2023-05-07T06:03:22;17.5;;;14.7;;
59653;SDS011;66556;52.008;5.432;2023-05-07T06:06:35;17.91;;;16.0;;
59653;SDS011;66556;52.008;5.432;2023-05-07T06:08:11;17.91;;;16.0;;
59653;SDS011;66556;52.008;5.432;2023-05-07T06:09:47;20.2;;;15.8;;
59653;SDS011;66556;52.008;5.432;2023-05-07T06:12:59;17.41;;;14.9;;
59653;SDS011;66556;52.008;5.432;2023-05-07T06:14:36;15.2;;;13.5;;
59653;SDS011;66556;52.008;5.432;2023-05-07T06:16:12;18.41;;;15.1;;
59653;SDS011;66556;52.008;5.432;2023-05-07T06:17:49;17.8;;;15.9;;
59653;SDS011;66556;52.008;5.432;2023-05-07T06:21:01;16.7;;;14.9;;
59653;SDS011;66556;52.008;5.432;2023-05-07T06:22:38;20.41;;;15.1;;
59653;SDS011;66556;52.008;5.432;2023-05-07T06:24:14;20.7;;;15.5;;
59653;SDS011;66556;52.008;5.432;2023-05-07T06:27:28;15.9;;;14.3;;
59653;SDS011;66556;52.008;5.432;2023-05-07T06:29:04;19.7;;;15.0;;
59653;SDS011;66556;52.008;5.432;2023-05-07T06:30:40;17.3;;;14.9;;
59653;SDS011;66556;52.008;5.432;2023-05-07T06:33:55;18.0;;;15.3;;
59653;SDS011;66556;52.008;5.432;2023-05-07T06:35:31;19.91;;;16.9;;
59653;SDS011;66556;52.008;5.432;2023-05-07T06:37:07;16.2;;;14.1;;
59653;SDS011;66556;52.008;5.432;2023-05-07T06:38:43;17.0;;;14.7;;
59653;SDS011;66556;52.008;5.432;2023-05-07T06:41:55;18.11;;;15.2;;
59653;SDS011;66556;52.008;5.432;2023-05-07T06:43:32;19.8;;;15.7;;
59653;SDS011;66556;52.008;5.432;2023-05-07T06:45:09;18.61;;;15.9;;
59653;SDS011;66556;52.008;5.432;2023-05-07T06:48:22;17.41;;;15.6;;
59653;SDS011;66556;52.008;5.432;2023-05-07T06:49:58;19.2;;;17.11;;
59653;SDS011;66556;52.008;5.432;2023-05-07T06:51:34;20.3;;;15.9;;
59653;SDS011;66556;52.008;5.432;2023-05-07T06:54:46;17.91;;;16.11;;
59653;SDS011;66556;52.008;5.432;2023-05-07T06:56:23;16.8;;;15.0;;
59653;SDS011;66556;52.008;5.432;2023-05-07T06:57:59;19.91;;;16.11;;
59653;SDS011;66556;52.008;5.432;2023-05-07T06:59:36;17.2;;;15.0;;
59653;SDS011;66556;52.008;5.432;2023-05-07T07:02:48;20.7;;;16.8;;
59653;SDS011;66556;52.008;5.432;2023-05-07T07:04:24;16.9;;;14.7;;
59653;SDS011;66556;52.008;5.432;2023-05-07T07:06:00;18.0;;;16.11;;
59653;SDS011;66556;52.008;5.432;2023-05-07T07:09:13;21.1;;;17.5;;
59653;SDS011;66556;52.008;5.432;2023-05-07T07:10:49;21.3;;;17.2;;
59653;SDS011;66556;52.008;5.432;2023-05-07T07:12:25;17.0;;;15.2;;
59653;SDS011;66556;52.008;5.432;2023-05-07T07:15:37;21.8;;;16.5;;
59653;SDS011;66556;52.008;5.432;2023-05-07T07:17:14;17.41;;;15.6;;
59653;SDS011;66556;52.008;5.432;2023-05-07T07:18:50;16.8;;;15.1;;
59653;SDS011;66556;52.008;5.432;2023-05-07T07:22:03;18.11;;;16.11;;
59653;SDS011;66556;52.008;5.432;2023-05-07T07:23:39;16.61;;;14.8;;
59653;SDS011;66556;52.008;5.432;2023-05-07T07:25:16;19.3;;;15.8;;
59653;SDS011;66556;52.008;5.432;2023-05-07T07:26:53;15.9;;;14.3;;
59653;SDS011;66556;52.008;5.432;2023-05-07T07:30:05;17.8;;;15.9;;
59653;SDS011;66556;52.008;5.432;2023-05-07T07:31:43;17.91;;;15.8;;
59653;SDS011;66556;52.008;5.432;2023-05-07T07:33:19;16.7;;;15.0;;
59653;SDS011;66556;52.008;5.432;2023-05-07T07:36:31;16.4;;;14.7;;
59653;SDS011;66556;52.008;5.432;2023-05-07T07:38:07;15.9;;;14.2;;
59653;SDS011;66556;52.008;5.432;2023-05-07T07:39:44;14.4;;;12.9;;
59653;SDS011;66556;52.008;5.432;2023-05-07T07:42:56;15.3;;;13.4;;
59653;SDS011;66556;52.008;5.432;2023-05-07T07:44:33;15.6;;;13.1;;
59653;SDS011;66556;52.008;5.432;2023-05-07T07:46:10;14.8;;;13.3;;
59653;SDS011;66556;52.008;5.432;2023-05-07T07:47:48;14.8;;;13.2;;
59653;SDS011;66556;52.008;5.432;2023-05-07T07:51:00;16.0;;;14.4;;
59653;SDS011;66556;52.008;5.432;2023-05-07T07:52:37;17.2;;;13.3;;
59653;SDS011;66556;52.008;5.432;2023-05-07T07:54:14;14.4;;;12.9;;
59653;SDS011;66556;52.008;5.432;2023-05-07T07:57:26;14.9;;;13.3;;
59653;SDS011;66556;52.008;5.432;2023-05-07T07:59:03;17.41;;;14.1;;
59653;SDS011;66556;52.008;5.432;2023-05-07T08:00:39;15.1;;;13.3;;
59653;SDS011;66556;52.008;5.432;2023-05-07T08:03:53;19.61;;;16.7;;
59653;SDS011;66556;52.008;5.432;2023-05-07T08:05:29;17.61;;;14.7;;
59653;SDS011;66556;52.008;5.432;2023-05-07T08:07:06;16.4;;;13.6;;
59653;SDS011;66556;52.008;5.432;2023-05-07T08:08:42;16.7;;;14.5;;
59653;SDS011;66556;52.008;5.432;2023-05-07T08:11:56;15.7;;;14.0;;
59653;SDS011;66556;52.008;5.432;2023-05-07T08:13:33;16.8;;;15.1;;
59653;SDS011;66556;52.008;5.432;2023-05-07T08:15:11;15.8;;;13.4;;
59653;SDS011;66556;52.008;5.432;2023-05-07T08:18:23;18.2;;;14.9;;
59653;SDS011;66556;52.008;5.432;2023-05-07T08:20:01;13.8;;;12.4;;
59653;SDS011;66556;52.008;5.432;2023-05-07T08:21:39;19.2;;;15.9;;
59653;SDS011;66556;52.008;5.432;2023-05-07T08:23:15;17.0;;;15.2;;
59653;SDS011;66556;52.008;5.432;2023-05-07T08:26:28;18.11;;;16.2;;
59653;SDS011;66556;52.008;5.432;2023-05-07T08:28:05;18.61;;;16.61;;
59653;SDS011;66556;52.008;5.432;2023-05-07T08:29:41;16.61;;;14.9;;
59653;SDS011;66556;52.008;5.432;2023-05-07T08:32:53;15.8;;;13.9;;
59653;SDS011;66556;52.008;5.432;2023-05-07T08:34:29;17.0;;;15.2;;
59653;SDS011;66556;52.008;5.432;2023-05-07T08:36:05;17.2;;;15.4;;
59653;SDS011;66556;52.008;5.432;2023-05-07T08:39:19;17.0;;;15.3;;
59653;SDS011;66556;52.008;5.432;2023-05-07T08:40:55;16.4;;;14.7;;
59653;SDS011;66556;52.008;5.432;2023-05-07T08:42:33;16.9;;;15.1;;
59653;SDS011;66556;52.008;5.432;2023-05-07T08:44:12;17.91;;;15.2;;
59653;SDS011;66556;52.008;5.432;2023-05-07T08:47:32;16.3;;;14.6;;
59653;SDS011;66556;52.008;5.432;2023-05-07T08:49:15;15.9;;;14.3;;
59653;SDS011;66556;52.008;5.432;2023-05-07T08:50:52;17.11;;;13.0;;
59653;SDS011;66556;52.008;5.432;2023-05-07T08:54:05;15.4;;;13.8;;
59653;SDS011;66556;52.008;5.432;2023-05-07T08:55:44;15.4;;;13.8;;
59653;SDS011;66556;52.008;5.432;2023-05-07T08:57:22;14.5;;;13.0;;
59653;SDS011;66556;52.008;5.432;2023-05-07T08:58:58;15.1;;;13.5;;
59653;SDS011;66556;52.008;5.432;2023-05-07T09:02:13;14.4;;;12.4;;
59653;SDS011;66556;52.008;5.432;2023-05-07T09:03:49;14.2;;;12.8;;
59653;SDS011;66556;52.008;5.432;2023-05-07T09:05:28;15.7;;;14.1;;
59653;SDS011;66556;52.008;5.432;2023-05-07T09:08:41;17.0;;;13.6;;
59653;SDS011;66556;52.008;5.432;2023-05-07T09:10:25;14.0;;;12.5;;
59653;SDS011;66556;52.008;5.432;2023-05-07T09:12:02;13.8;;;12.4;;
59653;SDS011;66556;52.008;5.432;2023-05-07T09:13:39;13.9;;;12.5;;
59653;SDS011;66556;52.008;5.432;2023-05-07T09:16:51;14.8;;;13.0;;
59653;SDS011;66556;52.008;5.432;2023-05-07T09:18:28;15.4;;;13.7;;
59653;SDS011;66556;52.008;5.432;2023-05-07T09:20:05;15.6;;;14.0;;
59653;SDS011;66556;52.008;5.432;2023-05-07T09:23:20;16.0;;;14.4;;
59653;SDS011;66556;52.008;5.432;2023-05-07T09:24:57;15.5;;;14.0;;
59653;SDS011;66556;52.008;5.432;2023-05-07T09:26:33;16.9;;;14.2;;
59653;SDS011;66556;52.008;5.432;2023-05-07T09:28:10;16.11;;;14.0;;
59653;SDS011;66556;52.008;5.432;2023-05-07T09:31:23;15.6;;;13.3;;
59653;SDS011;66556;52.008;5.432;2023-05-07T09:33:01;14.7;;;13.0;;
59653;SDS011;66556;52.008;5.432;2023-05-07T09:34:40;15.4;;;12.4;;
59653;SDS011;66556;52.008;5.432;2023-05-07T09:37:55;16.61;;;14.1;;
59653;SDS011;66556;52.008;5.432;2023-05-07T09:41:18;15.4;;;13.7;;
59653;SDS011;66556;52.008;5.432;2023-05-07T09:42:55;15.1;;;13.6;;
59653;SDS011;66556;52.008;5.432;2023-05-07T09:46:11;16.11;;;12.8;;
59653;SDS011;66556;52.008;5.432;2023-05-07T09:47:50;16.11;;;12.8;;
59653;SDS011;66556;52.008;5.432;2023-05-07T09:49:33;12.8;;;11.4;;
59653;SDS011;66556;52.008;5.432;2023-05-07T09:51:15;16.0;;;12.8;;
59653;SDS011;66556;52.008;5.432;2023-05-07T09:54:45;14.4;;;12.9;;
59653;SDS011;66556;52.008;5.432;2023-05-07T09:56:23;14.0;;;12.2;;
59653;SDS011;66556;52.008;5.432;2023-05-07T09:58:01;12.7;;;11.5;;
59653;SDS011;66556;52.008;5.432;2023-05-07T09:59:40;13.3;;;11.3;;
59653;SDS011;66556;52.008;5.432;2023-05-07T10:02:57;11.6;;;10.4;;
59653;SDS011;66556;52.008;5.432;2023-05-07T10:04:35;12.8;;;10.9;;
59653;SDS011;66556;52.008;5.432;2023-05-07T10:06:13;13.2;;;10.4;;
59653;SDS011;66556;52.008;5.432;2023-05-07T10:09:29;12.8;;;10.7;;
59653;SDS011;66556;52.008;5.432;2023-05-07T10:11:06;11.4;;;9.81;;
59653;SDS011;66556;52.008;5.432;2023-05-07T10:12:42;10.4;;;9.1;;
59653;SDS011;66556;52.008;5.432;2023-05-07T10:14:19;11.6;;;9.81;;
59653;SDS011;66556;52.008;5.432;2023-05-07T10:17:35;11.0;;;9.9;;
59653;SDS011;66556;52.008;5.432;2023-05-07T10:19:12;12.2;;;10.5;;
59653;SDS011;66556;52.008;5.432;2023-05-07T10:20:49;12.3;;;11.0;;
59653;SDS011;66556;52.008;5.432;2023-05-07T10:25:55;13.0;;;10.9;;
59653;SDS011;66556;52.008;5.432;2023-05-07T10:27:33;13.3;;;10.9;;
59653;SDS011;66556;52.008;5.432;2023-05-07T10:29:12;13.5;;;10.4;;
59653;SDS011;66556;52.008;5.432;2023-05-07T10:31:04;12.8;;;10.21;;
59653;SDS011;66556;52.008;5.432;2023-05-07T10:33:01;16.0;;;11.2;;
59653;SDS011;66556;52.008;5.432;2023-05-07T10:36:21;13.1;;;10.4;;
59653;SDS011;66556;52.008;5.432;2023-05-07T10:37:59;13.3;;;10.6;;
59653;SDS011;66556;52.008;5.432;2023-05-07T10:39:35;15.2;;;10.7;;
59653;SDS011;66556;52.008;5.432;2023-05-07T10:42:53;14.3;;;10.6;;
59653;SDS011;66556;52.008;5.432;2023-05-07T10:44:31;14.0;;;10.4;;
59653;SDS011;66556;52.008;5.432;2023-05-07T10:46:11;11.4;;;9.6;;
59653;SDS011;66556;52.008;5.432;2023-05-07T10:48:06;12.6;;;9.21;;
59653;SDS011;66556;52.008;5.432;2023-05-07T10:50:51;13.1;;;9.0;;
59653;SDS011;66556;52.008;5.432;2023-05-07T10:53:27;13.4;;;9.31;;
59653;SDS011;66556;52.008;5.432;2023-05-07T10:55:19;12.5;;;9.71;;
59653;SDS011;66556;52.008;5.432;2023-05-07T10:57:46;13.1;;;9.6;;
59653;SDS011;66556;52.008;5.432;2023-05-07T10:59:30;12.3;;;8.6;;
59653;SDS011;66556;52.008;5.432;2023-05-07T11:01:11;9.71;;;6.5;;
59653;SDS011;66556;52.008;5.432;2023-05-07T11:03:19;10.0;;;5.11;;
59653;SDS011;66556;52.008;5.432;2023-05-07T11:05:28;9.21;;;5.6;;
59653;SDS011;66556;52.008;5.432;2023-05-07T11:07:28;8.6;;;5.3;;
59653;SDS011;66556;52.008;5.432;2023-05-07T11:09:06;8.2;;;6.0;;
59653;SDS011;66556;52.008;5.432;2023-05-07T11:10:50;10.6;;;6.5;;
59653;SDS011;66556;52.008;5.432;2023-05-07T11:14:44;11.3;;;6.4;;
59653;SDS011;66556;52.008;5.432;2023-05-07T11:16:22;8.81;;;4.7;;
59653;SDS011;66556;52.008;5.432;2023-05-07T11:18:00;8.0;;;4.3;;
59653;SDS011;66556;52.008;5.432;2023-05-07T11:19:52;8.2;;;5.0;;
59653;SDS011;66556;52.008;5.432;2023-05-07T11:21:32;6.3;;;4.8;;
59653;SDS011;66556;52.008;5.432;2023-05-07T11:23:41;7.6;;;5.2;;
59653;SDS011;66556;52.008;5.432;2023-05-07T11:25:35;9.4;;;5.0;;
59653;SDS011;66556;52.008;5.432;2023-05-07T11:28:49;8.4;;;3.9;;
59653;SDS011;66556;52.008;5.432;2023-05-07T11:30:27;7.5;;;4.41;;
59653;SDS011;66556;52.008;5.432;2023-05-07T11:32:04;8.1;;;4.7;;
59653;SDS011;66556;52.008;5.432;2023-05-07T11:33:43;8.71;;;4.61;;
59653;SDS011;66556;52.008;5.432;2023-05-07T11:36:59;8.4;;;4.61;;
59653;SDS011;66556;52.008;5.432;2023-05-07T11:38:37;7.8;;;4.61;;
59653;SDS011;66556;52.008;5.432;2023-05-07T11:40:14;8.71;;;4.91;;
59653;SDS011;66556;52.008;5.432;2023-05-07T11:43:27;9.71;;;4.8;;
59653;SDS011;66556;52.008;5.432;2023-05-07T11:45:04;8.71;;;4.91;;
59653;SDS011;66556;52.008;5.432;2023-05-07T11:46:43;9.6;;;5.3;;
59653;SDS011;66556;52.008;5.432;2023-05-07T11:48:20;7.7;;;4.5;;
59653;SDS011;66556;52.008;5.432;2023-05-07T11:51:42;6.6;;;4.5;;
59653;SDS011;66556;52.008;5.432;2023-05-07T11:53:19;6.4;;;3.8;;
59653;SDS011;66556;52.008;5.432;2023-05-07T11:54:56;5.7;;;3.7;;
59653;SDS011;66556;52.008;5.432;2023-05-07T11:58:11;6.7;;;3.8;;
59653;SDS011;66556;52.008;5.432;2023-05-07T11:59:56;6.6;;;3.7;;
59653;SDS011;66556;52.008;5.432;2023-05-07T12:01:35;8.2;;;4.2;;
59653;SDS011;66556;52.008;5.432;2023-05-07T12:03:11;10.4;;;4.8;;
59653;SDS011;66556;52.008;5.432;2023-05-07T12:06:24;10.21;;;5.11;;
59653;SDS011;66556;52.008;5.432;2023-05-07T12:08:00;8.1;;;4.7;;
59653;SDS011;66556;52.008;5.432;2023-05-07T12:09:36;8.0;;;4.41;;
59653;SDS011;66556;52.008;5.432;2023-05-07T12:12:52;8.71;;;4.91;;
59653;SDS011;66556;52.008;5.432;2023-05-07T12:14:28;11.2;;;5.2;;
59653;SDS011;66556;52.008;5.432;2023-05-07T12:16:05;7.0;;;4.3;;
59653;SDS011;66556;52.008;5.432;2023-05-07T12:17:42;9.1;;;4.7;;
59653;SDS011;66556;52.008;5.432;2023-05-07T12:20:56;7.1;;;4.2;;
59653;SDS011;66556;52.008;5.432;2023-05-07T12:22:35;8.31;;;4.1;;
59653;SDS011;66556;52.008;5.432;2023-05-07T12:24:13;7.8;;;3.8;;
59653;SDS011;66556;52.008;5.432;2023-05-07T12:27:27;7.9;;;5.2;;
59653;SDS011;66556;52.008;5.432;2023-05-07T12:29:04;5.8;;;4.41;;
59653;SDS011;66556;52.008;5.432;2023-05-07T12:30:40;6.7;;;5.5;;
59653;SDS011;66556;52.008;5.432;2023-05-07T12:32:19;7.6;;;5.5;;
59653;SDS011;66556;52.008;5.432;2023-05-07T12:35:36;7.9;;;5.3;;
59653;SDS011;66556;52.008;5.432;2023-05-07T12:37:16;6.6;;;4.91;;
59653;SDS011;66556;52.008;5.432;2023-05-07T12:38:53;7.1;;;5.11;;
59653;SDS011;66556;52.008;5.432;2023-05-07T12:42:15;7.2;;;4.7;;
59653;SDS011;66556;52.008;5.432;2023-05-07T12:43:55;9.81;;;5.2;;